createdAt,value
2019-03-04T00:01:12.431Z,54.62
2019-03-04T00:03:41.746Z,54.96
2019-03-04T00:06:10.977Z,54.30
2019-03-04T00:08:40.246Z,53.34
2019-03-04T00:11:09.506Z,54.34
2019-03-04T00:13:38.791Z,53.65
2019-03-04T00:16:08.146Z,53.25
2019-03-04T00:18:37.413Z,53.36
2019-03-04T00:21:06.669Z,52.22
2019-03-04T00:23:35.921Z,51.41
2019-03-04T00:26:05.218Z,51.35
2019-03-04T00:28:34.481Z,53.43
2019-03-04T00:31:03.776Z,52.97
2019-03-04T00:33:33.027Z,53.15
2019-03-04T00:36:02.273Z,53.40
2019-03-04T00:38:31.516Z,54.15
2019-03-04T00:41:00.827Z,53.92
2019-03-04T00:43:30.090Z,52.94
2019-03-04T00:45:59.377Z,51.86
2019-03-04T00:48:28.711Z,51.88
2019-03-04T00:50:57.913Z,52.18
2019-03-04T00:53:27.188Z,53.61
2019-03-04T00:55:56.411Z,53.32
2019-03-04T00:58:25.701Z,52.98
2019-03-04T01:00:54.949Z,53.01
2019-03-04T01:03:24.196Z,52.59
2019-03-04T01:05:53.456Z,53.36
2019-03-04T01:08:22.725Z,52.85
2019-03-04T01:10:51.981Z,52.28
2019-03-04T01:13:21.240Z,52.40
2019-03-04T01:15:50.491Z,52.40
2019-03-04T01:18:19.750Z,53.14
2019-03-04T01:20:49.047Z,52.48
2019-03-04T01:23:18.273Z,52.77
2019-03-04T01:25:47.514Z,53.63
2019-03-04T01:28:16.772Z,53.44
2019-03-04T01:30:46.071Z,52.91
2019-03-04T01:33:15.292Z,53.13
2019-03-04T01:35:44.528Z,52.51
2019-03-04T01:38:13.821Z,52.71
2019-03-04T01:40:43.072Z,51.96
2019-03-04T01:43:12.383Z,51.96
2019-03-04T01:45:41.655Z,52.00
2019-03-04T01:48:11.014Z,51.95
2019-03-04T01:50:40.247Z,51.80
2019-03-04T01:53:09.523Z,52.58
2019-03-04T01:55:38.749Z,51.66
2019-03-04T01:58:08.012Z,52.69
2019-03-04T02:00:37.263Z,51.47
2019-03-04T02:03:06.543Z,52.43
2019-03-04T02:05:35.776Z,52.63
2019-03-04T02:08:05.048Z,53.73
2019-03-04T02:10:34.302Z,53.34
2019-03-04T02:13:03.576Z,53.02
2019-03-04T02:15:32.794Z,52.92
2019-03-04T02:18:02.043Z,53.37
2019-03-04T02:20:31.271Z,54.19
2019-03-04T02:23:00.507Z,54.32
2019-03-04T02:25:57.620Z,54.92
2019-03-04T02:28:26.886Z,54.95
2019-03-04T02:30:56.108Z,53.57
2019-03-04T02:33:25.334Z,53.79
2019-03-04T02:35:54.542Z,54.17
2019-03-04T02:38:23.790Z,53.93
2019-03-04T02:40:53.007Z,53.09
2019-03-04T02:43:22.261Z,53.82
2019-03-04T02:45:51.469Z,54.87
2019-03-04T02:48:20.752Z,54.33
2019-03-04T02:50:50.004Z,54.86
2019-03-04T02:53:19.254Z,54.33
2019-03-04T02:55:48.539Z,53.47
2019-03-04T02:58:17.782Z,53.78
2019-03-04T03:00:46.998Z,54.00
2019-03-04T03:03:16.226Z,53.21
2019-03-04T03:05:45.510Z,52.57
2019-03-04T03:17:45.939Z,52.50
2019-03-04T03:20:15.393Z,52.40
2019-03-04T03:22:44.632Z,52.75
2019-03-04T03:25:13.905Z,52.17
2019-03-04T03:27:43.130Z,52.56
2019-03-04T03:30:12.589Z,51.49
2019-03-04T03:32:41.829Z,52.92
2019-03-04T03:35:11.192Z,52.04
2019-03-04T03:37:40.515Z,51.79
2019-03-04T03:40:11.223Z,51.25
2019-03-04T03:42:40.483Z,50.53
2019-03-04T03:45:10.159Z,50.31
2019-03-04T03:47:39.450Z,50.46
2019-03-04T03:50:09.651Z,50.27
2019-03-04T03:52:38.898Z,49.64
2019-03-04T03:55:08.822Z,49.10
2019-03-04T03:57:38.080Z,49.16
2019-03-04T04:00:11.081Z,48.28
2019-03-04T04:02:40.347Z,47.77
2019-03-04T04:05:09.563Z,47.71
2019-03-04T04:07:38.820Z,47.36
2019-03-04T04:10:09.797Z,47.43
2019-03-04T04:12:39.046Z,48.17
2019-03-04T04:15:08.963Z,48.37
2019-03-04T04:17:38.213Z,47.94
2019-03-04T04:20:07.626Z,48.27
2019-03-04T04:22:36.985Z,48.10
2019-03-04T04:25:06.484Z,48.42
2019-03-04T04:27:36.228Z,48.90
2019-03-04T04:30:06.173Z,48.67
2019-03-04T04:32:35.443Z,48.41
2019-03-04T04:35:04.654Z,48.59
2019-03-04T04:37:33.891Z,48.70
2019-03-04T04:40:03.130Z,47.86
2019-03-04T04:42:32.344Z,47.66
2019-03-04T04:45:01.596Z,47.39
2019-03-04T04:47:30.864Z,46.37
2019-03-04T04:50:00.242Z,46.45
2019-03-04T04:52:29.532Z,46.36
2019-03-04T04:54:59.095Z,45.66
2019-03-04T04:57:28.305Z,45.63
2019-03-04T04:59:57.546Z,46.13
2019-03-04T05:02:26.797Z,45.83
2019-03-04T05:04:56.123Z,46.47
2019-03-04T05:07:25.449Z,46.33
2019-03-04T05:09:54.706Z,47.22
2019-03-04T05:12:23.939Z,45.89
2019-03-04T05:14:53.269Z,46.49
2019-03-04T05:17:22.522Z,46.83
2019-03-04T05:19:51.773Z,46.87
2019-03-04T05:22:21.005Z,47.01
2019-03-04T05:24:50.270Z,46.58
2019-03-04T05:27:19.526Z,47.30
2019-03-04T05:29:48.794Z,47.46
2019-03-04T05:32:18.026Z,47.42
2019-03-04T05:34:47.275Z,47.31
2019-03-04T05:37:16.522Z,46.89
2019-03-04T05:39:45.831Z,46.61
2019-03-04T05:42:15.062Z,47.62
2019-03-04T05:44:44.449Z,49.18
2019-03-04T05:47:13.734Z,51.27
2019-03-04T05:49:43.006Z,51.66
2019-03-04T05:52:12.279Z,55.26
2019-03-04T05:54:41.497Z,58.18
2019-03-04T05:57:10.769Z,61.76
2019-03-04T05:59:39.995Z,59.83
2019-03-04T06:02:10.545Z,63.82
2019-03-04T06:04:41.055Z,64.26
2019-03-04T06:07:15.767Z,61.88
2019-03-04T06:09:45.010Z,61.97
2019-03-04T06:12:14.356Z,62.16
2019-03-04T06:14:43.625Z,62.01
2019-03-04T06:17:12.893Z,62.23
2019-03-04T06:19:44.005Z,61.52
2019-03-04T06:22:13.126Z,62.70
2019-03-04T06:24:42.361Z,62.94
2019-03-04T06:27:11.686Z,61.79
2019-03-04T06:29:40.915Z,61.35
2019-03-04T06:32:10.200Z,59.37
2019-03-04T06:34:39.421Z,57.57
2019-03-04T06:37:08.683Z,58.45
2019-03-04T06:39:37.885Z,57.09
2019-03-04T06:42:07.188Z,57.49
2019-03-04T06:44:36.523Z,57.43
2019-03-04T06:47:05.925Z,55.65
2019-03-04T06:49:35.142Z,55.16
2019-03-04T06:52:04.582Z,54.61
2019-03-04T06:54:58.486Z,55.04
2019-03-04T06:57:33.813Z,55.44
2019-03-04T07:00:47.179Z,54.42
2019-03-04T07:03:28.298Z,54.94
2019-03-04T07:05:57.567Z,55.84
2019-03-04T07:09:11.466Z,55.58
2019-03-04T07:11:47.507Z,56.28
2019-03-04T07:14:16.773Z,57.08
2019-03-04T07:16:46.869Z,57.02
2019-03-04T07:19:41.415Z,57.18
2019-03-04T07:22:11.168Z,57.20
2019-03-04T07:31:31.105Z,58.41
2019-03-04T07:34:33.993Z,58.30
2019-03-04T07:40:35.081Z,55.69
2019-03-04T07:43:31.174Z,55.36
2019-03-04T07:46:01.783Z,56.70
2019-03-04T07:48:31.014Z,56.41
2019-03-04T07:51:11.965Z,55.76
2019-03-04T07:53:46.223Z,55.42
2019-03-04T07:56:12.290Z,54.18
2019-03-04T07:58:42.853Z,54.23
2019-03-04T08:01:12.111Z,54.00
2019-03-04T08:03:44.548Z,53.43
2019-03-04T08:06:13.873Z,53.01
2019-03-04T08:09:11.505Z,53.15
2019-03-04T08:12:32.305Z,53.01
2019-03-04T08:15:01.864Z,53.24
2019-03-04T08:17:31.237Z,52.88
2019-03-04T08:20:00.623Z,52.82
2019-03-04T08:22:29.952Z,54.35
2019-03-04T08:24:59.248Z,54.32
2019-03-04T08:27:28.577Z,55.86
2019-03-04T08:29:57.856Z,54.34
2019-03-04T08:32:27.159Z,55.68
2019-03-04T08:34:56.542Z,55.42
2019-03-04T08:37:25.890Z,54.60
2019-03-04T08:39:55.131Z,55.41
2019-03-04T08:42:24.500Z,54.09
2019-03-04T08:44:53.771Z,53.44
2019-03-04T08:47:23.174Z,51.39
2019-03-04T08:49:52.394Z,50.52
2019-03-04T08:52:21.783Z,48.91
2019-03-04T08:54:51.064Z,48.03
2019-03-04T08:57:20.339Z,46.88
2019-03-04T08:59:49.624Z,45.84
2019-03-04T09:02:18.892Z,44.14
2019-03-04T09:04:48.164Z,44.98
2019-03-04T09:07:17.470Z,43.93
2019-03-04T09:09:46.726Z,43.86
2019-03-04T09:12:15.998Z,43.61
2019-03-04T09:14:45.230Z,44.66
2019-03-04T09:17:14.462Z,44.68
2019-03-04T09:19:43.728Z,44.37
2019-03-04T09:22:13.005Z,44.53
2019-03-04T09:24:42.293Z,45.43
2019-03-04T09:27:11.593Z,46.40
2019-03-04T09:29:40.942Z,48.91
2019-03-04T09:32:10.241Z,49.99
2019-03-04T09:34:39.592Z,49.93
2019-03-04T09:37:08.921Z,52.40
2019-03-04T09:39:38.203Z,54.55
2019-03-04T09:42:22.806Z,54.56
2019-03-04T09:44:52.154Z,54.48
2019-03-04T09:47:21.452Z,56.39
2019-03-04T09:49:50.726Z,55.81
2019-03-04T09:52:20.032Z,56.94
2019-03-04T09:54:49.417Z,57.18
2019-03-04T09:57:18.697Z,57.70
2019-03-04T09:59:48.017Z,57.06
2019-03-04T10:02:21.901Z,57.79
2019-03-04T10:05:41.310Z,56.89
2019-03-04T10:08:19.021Z,55.40
2019-03-04T10:11:20.842Z,56.71
2019-03-04T10:14:42.799Z,56.28
2019-03-04T10:21:54.340Z,55.08
2019-03-04T10:24:56.529Z,55.16
2019-03-04T10:27:57.176Z,55.52
2019-03-04T10:31:15.098Z,54.51
2019-03-04T10:33:56.586Z,55.09
2019-03-04T10:37:10.554Z,54.81
2019-03-04T10:40:15.544Z,52.95
2019-03-04T10:43:34.533Z,52.43
2019-03-04T10:46:19.864Z,52.09
2019-03-04T10:48:49.465Z,54.01
2019-03-04T10:51:20.420Z,56.35
2019-03-04T10:53:50.472Z,57.48
2019-03-04T10:56:19.803Z,61.18
2019-03-04T10:58:49.209Z,63.82
2019-03-04T11:01:18.566Z,65.04
2019-03-04T11:03:48.045Z,64.67
2019-03-04T11:06:17.468Z,62.44
2019-03-04T11:08:46.830Z,62.80
2019-03-04T11:11:29.285Z,61.73
2019-03-04T11:13:50.438Z,62.59
2019-03-04T11:16:19.745Z,61.42
2019-03-04T11:18:49.079Z,59.74
2019-03-04T11:21:18.434Z,60.17
2019-03-04T11:23:48.054Z,59.90
2019-03-04T11:26:17.361Z,60.16
2019-03-04T11:28:47.032Z,59.01
2019-03-04T11:31:16.617Z,57.53
2019-03-04T11:33:46.229Z,57.62
2019-03-04T11:36:20.551Z,56.59
2019-03-04T11:43:39.603Z,55.51
2019-03-04T11:46:32.531Z,54.63
2019-03-04T11:53:33.387Z,54.78
2019-03-04T11:56:32.433Z,54.45
2019-03-04T11:59:32.380Z,50.94
2019-03-04T12:02:39.048Z,51.35
2019-03-04T12:05:32.044Z,54.15
2019-03-04T12:08:34.109Z,52.67
2019-03-04T12:11:38.140Z,54.17
2019-03-04T12:14:33.779Z,52.77
2019-03-04T12:17:31.232Z,52.41
2019-03-04T12:20:33.272Z,52.23
2019-03-04T12:25:51.649Z,49.43
2019-03-04T12:28:32.953Z,50.24
2019-03-04T12:31:02.374Z,49.76
2019-03-04T12:33:31.643Z,48.65
2019-03-04T12:36:01.146Z,48.74
2019-03-04T12:38:30.475Z,50.75
2019-03-04T12:41:01.509Z,50.80
2019-03-04T12:43:30.901Z,50.48
2019-03-04T12:46:00.285Z,52.13
2019-03-04T12:48:29.776Z,53.00
2019-03-04T12:50:59.032Z,52.85
2019-03-04T12:53:37.036Z,52.92
2019-03-04T12:55:59.565Z,52.42
2019-03-04T12:58:28.824Z,52.54
2019-03-04T13:00:58.279Z,54.12
2019-03-04T13:03:27.567Z,54.03
2019-03-04T13:05:56.978Z,54.73
2019-03-04T13:08:26.247Z,55.24
2019-03-04T13:10:55.721Z,55.70
2019-03-04T13:13:25.030Z,55.03
2019-03-04T13:15:55.691Z,54.29
2019-03-04T13:18:25.114Z,54.15
2019-03-04T13:20:54.459Z,52.55
2019-03-04T13:23:24.070Z,52.25
2019-03-04T13:25:53.389Z,52.23
2019-03-04T13:28:22.731Z,52.02
2019-03-04T13:30:52.308Z,53.17
2019-03-04T13:33:21.750Z,52.95
2019-03-04T13:35:51.009Z,52.73
2019-03-04T13:38:20.372Z,53.79
2019-03-04T13:40:49.638Z,53.37
2019-03-04T13:43:33.843Z,52.54
2019-03-04T13:46:03.106Z,52.35
2019-03-04T13:48:32.461Z,51.16
2019-03-04T13:51:01.757Z,51.08
2019-03-04T13:53:34.148Z,50.54
2019-03-04T13:56:03.534Z,50.47
2019-03-04T13:58:32.959Z,51.79
2019-03-04T14:01:02.226Z,51.06
2019-03-04T14:03:31.499Z,48.73
2019-03-04T14:06:00.794Z,48.76
2019-03-04T14:08:30.151Z,46.91
2019-03-04T14:10:59.424Z,47.43
2019-03-04T14:13:28.704Z,43.84
2019-03-04T14:15:58.088Z,41.41
2019-03-04T14:18:27.426Z,40.94
2019-03-04T14:20:56.746Z,39.82
2019-03-04T14:23:25.926Z,41.09
2019-03-04T14:25:55.440Z,40.64
2019-03-04T14:28:24.748Z,38.60
2019-03-04T14:30:54.021Z,39.55
2019-03-04T14:33:23.263Z,39.33
2019-03-04T14:35:52.546Z,38.81
2019-03-04T14:38:21.809Z,36.92
2019-03-04T14:40:51.124Z,38.13
2019-03-04T14:43:20.404Z,36.59
2019-03-04T14:45:49.739Z,38.23
2019-03-04T14:48:19.104Z,37.70
2019-03-04T14:50:48.388Z,37.15
2019-03-04T14:53:17.928Z,37.97
2019-03-04T14:55:47.210Z,36.79
2019-03-04T14:58:16.468Z,38.02
2019-03-04T15:00:47.451Z,36.59
2019-03-04T15:03:23.100Z,37.33
2019-03-04T15:05:48.026Z,36.81
2019-03-04T15:08:17.290Z,37.37
2019-03-04T15:10:46.577Z,37.16
2019-03-04T15:13:15.901Z,38.13
2019-03-04T15:15:45.269Z,38.13
2019-03-04T15:18:14.816Z,38.78
2019-03-04T15:20:44.160Z,37.72
2019-03-04T15:23:13.622Z,37.84
2019-03-04T15:25:43.061Z,38.80
2019-03-04T15:28:17.582Z,39.72
2019-03-04T15:30:48.077Z,39.14
2019-03-04T15:33:18.773Z,38.09
2019-03-04T15:35:48.275Z,38.51
2019-03-04T15:38:17.602Z,39.21
2019-03-04T15:40:46.905Z,39.29
2019-03-04T15:43:16.266Z,39.48
2019-03-04T15:45:47.611Z,39.64
2019-03-04T15:48:17.275Z,40.14
2019-03-04T15:50:46.549Z,39.72
2019-03-04T15:53:15.982Z,39.32
2019-03-04T15:59:34.392Z,40.26
2019-03-04T16:02:08.720Z,39.87
2019-03-04T16:04:38.038Z,37.93
2019-03-04T16:07:08.837Z,38.94
2019-03-04T16:09:38.162Z,38.87
2019-03-04T16:12:08.152Z,39.05
2019-03-04T16:14:37.448Z,39.91
2019-03-04T16:17:08.940Z,41.00
2019-03-04T16:19:38.282Z,40.77
2019-03-04T16:22:07.595Z,40.74
2019-03-04T16:24:36.906Z,40.66
2019-03-04T16:27:11.214Z,41.20
2019-03-04T16:29:40.546Z,40.66
2019-03-04T16:32:09.850Z,40.13
2019-03-04T16:34:39.172Z,40.01
2019-03-04T16:37:09.075Z,40.13
2019-03-04T16:39:38.373Z,39.76
2019-03-04T16:42:09.111Z,40.10
2019-03-04T16:44:40.002Z,41.48
2019-03-04T16:47:09.408Z,40.43
2019-03-04T16:49:38.744Z,41.22
2019-03-04T16:52:09.215Z,41.66
2019-03-04T16:54:38.530Z,41.91
2019-03-04T16:57:14.293Z,41.31
2019-03-04T16:59:43.734Z,40.44
2019-03-04T17:02:13.028Z,41.69
2019-03-04T17:04:42.366Z,42.65
2019-03-04T17:07:11.632Z,42.48
2019-03-04T17:10:34.302Z,41.86
2019-03-04T17:15:50.736Z,42.33
2019-03-04T17:18:20.036Z,42.25
2019-03-04T17:20:49.326Z,42.38
2019-03-04T17:23:18.750Z,41.81
2019-03-04T17:25:48.085Z,42.72
2019-03-04T17:28:32.551Z,43.12
2019-03-04T17:31:01.865Z,43.24
2019-03-04T17:33:34.275Z,43.77
2019-03-04T17:36:03.708Z,43.67
2019-03-04T17:38:33.000Z,43.55
2019-03-04T17:41:02.340Z,44.31
2019-03-04T17:43:32.553Z,44.57
2019-03-04T17:46:02.009Z,44.95
2019-03-04T17:48:34.406Z,44.34
2019-03-04T17:51:03.819Z,44.76
2019-03-04T17:53:33.099Z,44.59
2019-03-04T17:56:32.416Z,44.45
2019-03-04T17:59:01.785Z,44.68
2019-03-04T18:01:34.187Z,45.07
2019-03-04T18:04:03.562Z,45.11
2019-03-04T18:06:32.920Z,44.84
2019-03-04T18:09:02.298Z,45.46
2019-03-04T18:11:31.794Z,45.33
2019-03-04T18:14:01.108Z,45.51
2019-03-04T18:16:30.618Z,44.79
2019-03-04T18:18:59.937Z,44.57
2019-03-04T18:21:29.294Z,44.52
2019-03-04T18:23:58.744Z,44.67
2019-03-04T18:26:51.554Z,44.18
2019-03-04T18:30:07.488Z,44.48
2019-03-04T18:33:20.903Z,44.22
2019-03-04T18:36:14.796Z,43.29
2019-03-04T18:39:15.364Z,43.10
2019-03-04T18:42:22.997Z,43.65
2019-03-04T18:45:44.274Z,43.78
2019-03-04T18:48:25.171Z,43.29
2019-03-04T18:50:54.497Z,43.71
2019-03-04T18:53:23.868Z,43.20
2019-03-04T18:55:53.233Z,43.20
2019-03-04T18:58:22.608Z,42.96
2019-03-04T19:00:51.918Z,44.23
2019-03-04T19:03:21.316Z,43.69
2019-03-04T19:05:50.654Z,44.31
2019-03-04T19:08:20.003Z,44.12
2019-03-04T19:10:49.341Z,43.16
2019-03-04T19:13:18.672Z,44.19
2019-03-04T19:15:47.988Z,46.50
2019-03-04T19:18:17.305Z,46.52
2019-03-04T19:20:46.678Z,47.04
2019-03-04T19:23:15.951Z,47.31
2019-03-04T19:25:45.219Z,47.34
2019-03-04T19:28:14.473Z,48.36
2019-03-04T19:30:43.891Z,47.36
2019-03-04T19:33:13.318Z,49.15
2019-03-04T19:35:42.758Z,47.97
2019-03-04T19:38:12.165Z,48.46
2019-03-04T19:40:41.554Z,48.90
2019-03-04T19:43:10.871Z,49.80
2019-03-04T19:45:40.205Z,49.48
2019-03-04T19:48:09.606Z,49.54
2019-03-04T19:50:39.018Z,49.63
2019-03-04T19:53:10.221Z,49.97
2019-03-04T19:55:39.802Z,50.30
2019-03-04T19:58:09.175Z,50.32
2019-03-04T20:00:38.617Z,50.83
2019-03-04T20:03:08.277Z,50.77
2019-03-04T20:05:37.672Z,51.14
2019-03-04T20:08:06.986Z,51.08
2019-03-04T20:22:29.360Z,51.40
2019-03-04T21:01:31.837Z,51.26
2019-03-04T21:04:33.782Z,51.60
2019-03-04T21:07:29.526Z,54.91
2019-03-04T21:09:58.841Z,55.92
2019-03-04T21:12:28.220Z,60.11
2019-03-04T21:14:57.538Z,61.09
2019-03-04T21:17:26.974Z,61.14
2019-03-04T21:19:56.305Z,59.76
2019-03-04T21:22:25.667Z,59.85
2019-03-04T21:24:55.059Z,58.96
2019-03-04T21:27:24.343Z,59.32
2019-03-04T21:30:15.976Z,59.30
2019-03-04T21:33:20.880Z,59.30
2019-03-04T21:36:00.584Z,59.71
2019-03-04T21:38:34.053Z,59.81
2019-03-04T21:41:35.400Z,59.75
2019-03-04T21:44:36.290Z,60.43
2019-03-04T21:47:20.124Z,60.62
2019-03-04T21:49:52.187Z,60.30
2019-03-04T21:52:42.301Z,60.40
2019-03-04T21:55:15.908Z,59.90
2019-03-04T21:57:51.120Z,60.29
2019-03-04T22:00:25.774Z,59.80
2019-03-04T22:02:59.664Z,60.20
2019-03-04T22:05:29.017Z,60.91
2019-03-04T22:07:58.428Z,61.21
2019-03-04T22:10:27.840Z,62.96
2019-03-04T22:12:57.423Z,60.63
2019-03-04T22:15:27.676Z,61.81
2019-03-04T22:17:56.942Z,60.77
2019-03-04T22:20:26.538Z,60.55
2019-03-04T22:22:55.922Z,60.92
2019-03-04T22:25:25.195Z,59.61
2019-03-04T22:27:54.474Z,60.10
2019-03-04T22:30:23.827Z,59.78
2019-03-04T22:32:53.090Z,61.15
2019-03-04T22:35:22.389Z,60.36
2019-03-04T22:37:51.685Z,60.56
2019-03-04T22:40:21.271Z,60.65
2019-03-04T22:42:50.577Z,59.45
2019-03-04T22:45:19.909Z,59.95
2019-03-04T22:47:49.668Z,59.90
2019-03-04T22:50:19.458Z,59.77
2019-03-04T22:52:48.764Z,59.51
2019-03-04T22:55:21.155Z,59.40
2019-03-04T22:57:50.496Z,58.85
2019-03-04T23:01:20.328Z,58.57
2019-03-04T23:03:49.847Z,58.87
2019-03-04T23:06:22.633Z,58.43
2019-03-04T23:08:50.997Z,57.50
2019-03-04T23:11:22.187Z,58.50
2019-03-04T23:14:07.448Z,58.01
2019-03-04T23:16:36.698Z,57.91
2019-03-04T23:19:05.948Z,59.06
2019-03-04T23:21:35.228Z,59.11
2019-03-04T23:24:04.620Z,58.85
2019-03-04T23:26:35.278Z,58.85
2019-03-04T23:29:04.958Z,57.84
2019-03-04T23:31:34.281Z,57.86
2019-03-04T23:34:03.543Z,59.30
2019-03-04T23:36:32.791Z,59.05
2019-03-04T23:39:02.067Z,58.45
2019-03-04T23:41:31.313Z,57.81
2019-03-04T23:44:00.585Z,58.97
2019-03-04T23:46:29.839Z,58.46
2019-03-04T23:48:59.175Z,57.43
2019-03-04T23:51:28.460Z,57.21
2019-03-04T23:53:57.740Z,56.30
2019-03-04T23:56:26.979Z,57.25
2019-03-04T23:58:56.238Z,57.53
